La Mata - P.N. Sant Llorenç del Munt i l'Obac





Hora UTC 09:55
Temperatura 12.4 ºC
Humitat 71.0 %
Pressió 1012.8 hPa
Pluja 0.0 mm
Velocitat vent 5.5 km/h
Direcció vent S
Radiació solar 1040.0 W/m²

Dades diàries 2021-05-14



Hora UTC (hivern +1h; estiu +2h)
Temperatura (ºC) Humitat (%) Pressió (hPa) Velocitat vent (km/h) Precipitació (mm) Radiació solar (W/m²)
Hora UTC Aire Humitat Pressió Vel. Dir. Vel. Max Dir. Intent. màx 5 min. Rad. Sol.
00:05 9.2 90.3 1010.6 6.0 WNW 6.0 WNW 0.0 0.1
00:10 9.2 90.4 1010.6 5.6 WNW 18.7 NW 0.0 0.1
00:15 9.2 90.5 1010.5 1.8 ESE 7.1 NE 0.0 0.1
00:20 9.2 90.6 1010.4 5.3 WNW 13.1 W 0.0 0.1
00:25 9.1 90.8 1010.4 3.1 NW 11.3 WNW 0.0 0.1
00:30 9.1 90.9 1010.4 4.1 NW 12.7 WSW 0.0 0.1
00:35 9.1 91.1 1010.4 3.1 NNE 11.3 NNW 0.0 0.1
00:40 9.1 91.2 1010.3 2.7 N 10.9 W 0.0 0.1
00:45 9.1 91.3 1010.3 4.7 NNW 10.9 N 0.0 0.1
00:50 9.0 91.4 1010.4 1.9 N 7.1 ENE 0.0 0.1
00:55 9.0 91.4 1010.4 4.0 NE 11.3 N 0.0 0.1
01:00 9.0 91.5 1010.4 3.0 NNE 13.1 N 0.0 0.1
01:05 9.0 91.6 1010.2 2.9 N 18.4 WNW 0.0 0.1
01:10 8.9 91.6 1010.1 4.0 NW 13.1 W 0.0 0.1
01:15 8.9 91.8 1010.1 3.9 NNE 9.9 WNW 0.0 0.1
01:20 8.9 92.0 1010.0 4.8 N 13.4 NNE 0.0 0.1
01:25 8.8 92.2 1010.0 7.6 N 22.2 N 0.0 0.1
01:30 8.7 92.5 1010.0 7.6 N 22.2 WNW 0.0 0.1
01:35 8.7 92.8 1010.0 5.3 NNW 16.6 NNW 0.0 0.1
01:40 8.6 93.0 1009.9 4.2 NNW 15.5 W 0.0 0.1
01:45 8.6 93.2 1009.9 5.3 WNW 14.8 NW 0.0 0.1
01:50 8.6 93.4 1009.9 3.3 N 13.8 NNW 0.0 0.1
01:55 8.6 93.5 1009.9 4.1 NNW 13.4 NNW 0.0 0.1
02:00 8.6 93.7 1009.8 4.6 N 16.2 NNW 0.0 0.1
02:05 8.5 93.7 1009.8 6.5 NNW 16.9 W 0.0 0.1
02:10 8.5 93.9 1009.8 5.0 ENE 16.6 NNE 0.0 0.1
02:15 8.5 93.9 1009.8 3.5 E 12.0 N 0.0 0.1
02:20 8.5 94.0 1009.7 3.8 ENE 13.4 N 0.0 0.1
02:25 8.5 94.0 1009.7 4.8 NNE 17.3 NNW 0.0 0.1
02:30 8.5 94.0 1009.7 3.3 N 14.5 NNW 0.0 0.1
02:35 8.5 94.0 1009.7 4.6 N 14.1 NNW 0.0 0.1
02:40 8.5 94.0 1009.8 5.0 NNW 19.8 NW 0.0 0.1
02:45 8.5 94.0 1009.9 3.1 NE 12.0 NW 0.0 0.1
02:50 8.5 94.1 1009.7 4.6 W 14.1 NW 0.0 0.1
02:55 8.5 94.1 1009.8 4.1 NW 12.0 N 0.0 0.1
03:00 8.5 94.1 1009.8 3.8 ESE 11.3 W 0.0 0.1
03:05 8.5 94.1 1009.8 3.5 E 10.6 N 0.0 0.1
03:10 8.5 94.1 1009.7 2.9 SE 5.6 SE 0.0 0.1
03:15 8.5 94.0 1009.8 3.5 SSE 8.5 E 0.0 0.1
03:20 8.6 94.0 1009.9 4.3 SSE 12.4 NNW 0.0 0.1
03:25 8.6 94.0 1010.0 3.1 ESE 7.8 NE 0.0 0.1
03:30 8.6 93.9 1010.1 2.9 SE 5.6 SE 0.0 0.1
03:35 8.6 93.9 1010.2 2.6 SSE 6.7 SSE 0.0 0.1
03:40 8.6 93.8 1010.2 4.0 N 12.7 N 0.0 0.1
03:45 8.6 93.7 1010.1 3.1 N 9.2 NNE 0.0 0.1
03:50 8.6 93.6 1010.0 5.2 NNE 10.9 NNE 0.0 0.1
03:55 8.6 93.6 1010.1 3.3 N 9.9 NNE 0.0 0.1
04:00 8.6 93.6 1010.1 2.6 NNW 7.1 N 0.0 0.1
04:05 8.6 93.6 1010.2 1.7 NNE 6.7 N 0.0 0.1
04:10 8.6 93.5 1010.2 3.1 NNW 7.8 NNW 0.0 0.1
04:15 8.7 93.5 1010.1 0.9 NNE 3.9 NNW 0.0 0.1
04:20 8.7 93.4 1010.2 1.8 NNE 6.0 NNE 0.0 0.2
04:25 8.7 93.3 1010.1 4.1 NE 8.5 NNE 0.0 0.3
04:30 8.7 93.3 1010.1 2.3 NNE 4.9 NNE 0.0 0.4
04:35 8.7 93.3 1010.1 0.1 W 1.8 SW 0.0 0.7
04:40 8.7 93.4 1010.2 2.0 SW 3.5 WSW 0.0 0.7
04:45 8.7 93.2 1010.2 2.1 WSW 3.5 SW 0.0 1.1
04:50 8.7 93.2 1010.2 1.3 WSW 3.5 WSW 0.0 1.5
04:55 8.7 93.3 1010.2 4.0 S 6.4 SSW 0.0 3.7
05:00 8.8 93.2 1010.2 3.7 SSW 6.0 SW 0.0 9.2
05:05 8.8 93.1 1010.3 4.7 SSW 6.7 SW 0.0 10.0
05:10 8.8 93.1 1010.4 4.7 SSW 7.4 S 0.0 5.0
05:15 8.8 93.1 1010.6 4.8 SW 6.7 SW 0.0 2.6
05:20 8.8 93.2 1010.6 3.8 SSW 7.1 S 0.0 3.1
05:25 8.8 93.1 1010.6 7.2 SSW 9.9 SSW 0.0 1.9
05:30 8.7 93.1 1010.7 10.8 WSW 17.6 W 0.0 3.7
05:35 8.6 93.1 1010.8 10.3 W 18.4 W 0.0 6.8
05:40 8.5 93.2 1010.8 9.8 WSW 15.9 WSW 0.0 12.4
05:45 8.5 93.3 1010.8 8.4 W 14.5 W 0.0 21.2
05:50 8.5 93.3 1010.9 8.3 WSW 13.1 W 0.0 30.9
05:55 8.6 93.2 1010.9 10.4 WSW 19.1 WSW 0.0 42.2
06:00 8.6 93.0 1011.0 10.0 WSW 16.9 WSW 0.0 28.7
06:05 8.6 92.9 1011.1 11.2 WSW 15.5 W 0.0 32.2
06:10 8.7 92.8 1011.2 8.4 SW 16.9 SW 0.0 24.4
06:15 8.7 92.6 1011.2 12.0 WSW 20.8 SW 0.0 23.7
06:20 8.6 92.4 1011.2 11.2 WSW 19.4 WSW 0.0 29.2
06:25 8.6 92.5 1011.2 7.1 SW 13.8 SW 0.0 32.3
06:30 8.7 92.5 1011.2 10.2 SW 15.2 SW 0.0 51.2
06:35 8.7 92.5 1011.3 10.3 SW 16.9 SW 0.0 64.1
06:40 8.7 92.3 1011.4 11.4 SW 17.3 SW 0.0 58.9
06:45 8.7 92.2 1011.4 9.6 SW 15.9 SW 0.0 32.2
06:50 8.7 92.1 1011.4 10.2 SW 16.9 SSW 0.0 32.4
06:55 8.7 92.1 1011.5 8.6 SW 15.5 WSW 0.0 35.9
07:00 8.7 92.1 1011.5 5.9 WSW 10.2 WSW 0.0 20.8
07:05 8.7 92.3 1011.6 11.6 W 26.5 WNW 0.0 22.9
07:10 8.5 92.6 1011.6 15.2 W 25.1 W 0.0 65.2
07:15 8.3 93.3 1011.7 6.7 WSW 16.6 WSW 0.0 115.2
07:20 8.4 93.6 1011.7 9.4 W 18.0 W 0.0 177.9
07:25 8.3 93.6 1011.7 13.7 W 24.3 W 0.0 114.0
07:30 8.2 93.9 1011.8 8.5 W 15.2 W 0.0 77.3
07:35 8.1 93.8 1011.7 10.0 W 17.6 WSW 0.0 108.6
07:40 8.1 94.0 1011.7 10.6 WSW 16.6 WSW 0.0 138.5
07:45 8.1 94.2 1011.7 9.4 WSW 14.5 WSW 0.0 187.0
07:50 8.1 94.2 1011.8 9.8 WSW 15.2 WSW 0.0 202.7
07:55 8.2 94.1 1012.0 9.9 W 18.0 W 0.0 225.5
08:00 8.3 93.9 1012.1 8.1 W 15.2 WSW 0.0 317.7
08:05 8.5 93.5 1012.1 10.9 W 16.6 W 0.0 456.5
08:10 8.6 92.5 1012.1 9.9 W 19.4 W 0.0 220.2
08:15 8.8 91.5 1012.3 9.0 W 16.9 W 0.0 227.0
08:20 9.1 90.0 1012.3 9.8 WNW 19.8 NW 0.0 347.1
08:25 9.2 88.0 1012.3 12.5 W 18.4 W 0.0 334.0
08:30 9.2 86.9 1012.3 11.1 W 19.4 W 0.0 404.6
08:35 9.4 86.8 1012.4 9.3 W 18.7 WNW 0.0 608.6
08:40 9.8 87.1 1012.4 4.9 WNW 12.4 WSW 0.0 802.0
08:45 10.2 84.0 1012.4 5.8 W 14.5 W 0.0 845.0
08:50 10.9 82.2 1012.4 2.7 ENE 9.9 NNE 0.0 382.0
08:55 11.0 80.5 1012.4 3.6 NW 10.9 NW 0.0 321.9
09:00 10.9 80.8 1012.5 3.6 N 11.6 NNW 0.0 537.4
09:05 10.9 80.8 1012.5 1.4 SE 10.9 WSW 0.0 262.7
09:10 10.6 79.9 1012.6 5.6 WNW 12.0 WSW 0.0 458.8
09:15 10.7 80.7 1012.6 4.2 SW 9.5 SW 0.0 432.5
09:20 11.0 79.0 1012.6 4.3 SW 11.3 WNW 0.0 254.6
09:25 10.4 78.3 1012.7 8.6 WNW 14.5 WNW 0.0 253.6
09:30 10.4 79.9 1012.7 6.1 SW 10.9 WSW 0.0 502.6
09:35 10.7 78.4 1012.8 4.9 SSW 14.1 SSW 0.0 196.3
09:40 10.7 77.6 1012.8 5.7 W 12.7 W 0.0 195.3
09:45 10.6 77.4 1012.8 6.1 SW 10.9 SSW 0.0 847.0
09:50 11.7 76.9 1012.8 7.0 S 17.6 SSW 0.0 940.0
09:55 12.4 71.0 1012.8 5.5 S 13.1 SSW 0.0 1040.0
Màxima 12.8 94.2 1012.8 15.2 W 26.5 WNW 0.0 1040.0
Mínima 8.0 71.0 1009.7
Total 0.0